aviador You're here:

DAON Decoded Metar

TLEMCEN in ALGERIA
Report Time2018-01-23 05:30:00
UTC Time2018-01-23 05:46:04
Flight Rules vfr VFR
WindCalm
Visibility9999 m
Phenomena:N/A
Clouds:N/A
Expected CloudBase > 800 ft AGL from Temp-Dew spread
CeilingNone
Temp06°C (ISA -7)
Dew Point04°C (87% RH)
AAT4.7°C
QNH1026 hPa
Density Alt-407 ft
Elevation810 ft
Report Wrong Elevation
Raw Report
DAON 230530Z 00000KT CAVOK 06/04 Q1026=

Extra information for DAON:More info

Metar Taf Metar & Taf Last 4 Metars F.Rules Stats Wind Profile Meteogram Temp Stats Airport Information Weather charts Add Link Nearby VenuesMetar ALERT Operation Metar Decoded Social comments